Time;durP1;ratioP1;P1;durP2;ratioP2;P2;SDS_P1;SDS_P2;PMS_P1;PMS_P2;Temp;Humidity;BMP_temperature;BMP_pressure;BME280_temperature;BME280_humidity;BME280_pressure;Samples;Min_cycle;Max_cycle;Signal;HPM_P1;HPM_P2
2021/08/14 00:02:22;;;;;;;12.23;8.43;;;22.70;99.90;;;;;;4976924;28;20192;-77
2021/08/14 00:04:47;;;;;;;10.17;9.10;;;22.60;99.90;;;;;;4975627;28;20694;-76
2021/08/14 00:07:13;;;;;;;13.23;9.17;;;22.60;99.90;;;;;;4975299;28;20177;-76
2021/08/14 00:09:39;;;;;;;10.13;9.20;;;22.60;99.90;;;;;;4976892;28;20183;-76
2021/08/14 00:12:05;;;;;;;10.53;9.53;;;22.60;99.90;;;;;;4976815;28;20314;-76
2021/08/14 00:14:34;;;;;;;10.50;9.50;;;22.50;99.90;;;;;;4976529;28;20219;-76
2021/08/14 00:17:01;;;;;;;15.27;9.80;;;22.50;99.90;;;;;;4975516;28;20199;-76
2021/08/14 00:19:26;;;;;;;14.17;9.23;;;22.50;99.90;;;;;;4975324;28;20695;-76
2021/08/14 00:21:52;;;;;;;9.97;8.97;;;22.50;99.90;;;;;;4975119;28;20243;-76
2021/08/14 00:24:21;;;;;;;9.47;8.57;;;22.50;99.90;;;;;;4976429;28;20702;-76
2021/08/14 00:26:47;;;;;;;13.30;8.93;;;22.50;99.90;;;;;;4975078;28;20683;-76
2021/08/14 00:29:13;;;;;;;12.17;9.17;;;22.40;99.90;;;;;;4976488;28;20180;-74
2021/08/14 00:31:39;;;;;;;9.73;8.60;;;22.40;99.90;;;;;;4975011;28;20598;-76
2021/08/14 00:34:05;;;;;;;10.80;8.83;;;22.30;99.90;;;;;;4976343;28;20226;-76
2021/08/14 00:36:30;;;;;;;13.13;8.80;;;22.30;99.90;;;;;;4975005;28;20647;-78
2021/08/14 00:38:57;;;;;;;12.20;8.33;;;22.20;99.90;;;;;;4976311;28;20282;-76
2021/08/14 00:41:23;;;;;;;10.27;9.27;;;22.10;99.90;;;;;;4976172;28;20231;-76
2021/08/14 00:43:49;;;;;;;9.43;8.63;;;22.10;99.90;;;;;;4976033;28;20192;-76
2021/08/14 00:46:17;;;;;;;11.77;8.93;;;22.10;99.90;;;;;;4976167;28;20675;-76
2021/08/14 00:48:46;;;;;;;10.97;9.50;;;22.00;99.90;;;;;;4974721;28;20181;-76
2021/08/14 00:51:12;;;;;;;10.87;8.67;;;22.00;99.90;;;;;;4975967;28;20195;-77
2021/08/14 00:53:37;;;;;;;12.33;8.90;;;22.00;99.90;;;;;;4974558;28;20199;-76
2021/08/14 00:56:04;;;;;;;10.40;9.50;;;21.90;99.90;;;;;;4974615;28;20177;-77
2021/08/14 00:58:31;;;;;;;12.07;9.43;;;21.80;99.90;;;;;;4974652;28;20271;-76
2021/08/14 01:00:58;;;;;;;10.07;9.27;;;21.70;99.90;;;;;;4974428;28;20675;-76
2021/08/14 01:03:27;;;;;;;10.83;8.93;;;21.70;99.90;;;;;;4975146;28;20295;-76
2021/08/14 01:05:54;;;;;;;9.23;8.40;;;21.80;99.90;;;;;;4975679;28;20231;-76
2021/08/14 01:08:20;;;;;;;10.37;8.67;;;21.80;99.90;;;;;;4971644;28;20212;-77
2021/08/14 01:10:46;;;;;;;10.47;9.37;;;21.80;99.90;;;;;;4974249;28;20219;-75
2021/08/14 01:13:12;;;;;;;12.17;8.60;;;21.70;99.90;;;;;;4972471;28;20200;-76
2021/08/14 01:15:48;;;;;;;9.17;8.37;;;21.80;99.90;;;;;;4971520;28;20181;-76
2021/08/14 01:18:16;;;;;;;9.80;9.00;;;21.70;99.90;;;;;;4971456;28;20187;-76
2021/08/14 01:20:45;;;;;;;9.93;9.03;;;21.70;99.90;;;;;;4972745;28;20201;-76
2021/08/14 01:23:16;;;;;;;9.07;8.37;;;21.70;99.90;;;;;;4972564;28;20204;-75
2021/08/14 01:25:43;;;;;;;10.23;9.13;;;21.70;99.90;;;;;;4971296;28;20199;-77
2021/08/14 01:28:09;;;;;;;9.20;8.17;;;21.80;99.90;;;;;;4972824;28;20176;-78
2021/08/14 01:30:38;;;;;;;10.20;9.27;;;21.70;99.90;;;;;;4971455;28;20180;-75
2021/08/14 01:33:04;;;;;;;9.47;8.67;;;21.80;99.90;;;;;;4971140;28;20196;-73
2021/08/14 01:35:30;;;;;;;10.13;9.03;;;21.80;99.90;;;;;;4972009;28;20259;-75
2021/08/14 01:37:56;;;;;;;9.00;7.97;;;21.80;99.90;;;;;;4972418;28;20183;-75
2021/08/14 01:40:21;;;;;;;9.63;8.83;;;21.80;99.90;;;;;;4971831;28;20200;-76
2021/08/14 01:42:47;;;;;;;10.73;9.53;;;21.80;99.90;;;;;;4967937;28;20975;-77
2021/08/14 01:45:13;;;;;;;9.97;8.97;;;21.90;99.90;;;;;;4971837;28;20226;-75
2021/08/14 01:47:38;;;;;;;9.33;8.63;;;21.80;99.90;;;;;;4969594;28;20181;-76
2021/08/14 01:50:05;;;;;;;10.40;9.30;;;21.80;99.90;;;;;;4971765;28;20173;-76
2021/08/14 01:52:30;;;;;;;9.53;8.63;;;21.80;99.90;;;;;;4972840;28;20189;-76
2021/08/14 01:54:56;;;;;;;9.50;8.60;;;21.90;99.90;;;;;;4973929;28;20200;-76
2021/08/14 01:57:22;;;;;;;11.93;8.43;;;21.90;99.90;;;;;;4972867;28;20177;-77
2021/08/14 01:59:48;;;;;;;10.70;8.70;;;21.90;99.90;;;;;;4973272;28;20176;-76
2021/08/14 02:02:13;;;;;;;9.10;8.30;;;21.90;99.90;;;;;;4974552;28;20319;-77
2021/08/14 02:04:39;;;;;;;10.10;9.17;;;21.90;99.90;;;;;;4974652;28;20216;-75
2021/08/14 02:07:05;;;;;;;9.97;9.03;;;21.90;99.90;;;;;;4973960;28;20179;-76
2021/08/14 02:09:31;;;;;;;9.80;8.00;;;21.90;99.90;;;;;;4973965;28;20177;-75
2021/08/14 02:11:56;;;;;;;9.33;8.43;;;21.90;99.90;;;;;;4973173;28;20184;-75
2021/08/14 02:14:22;;;;;;;10.77;8.80;;;21.90;99.90;;;;;;4972134;28;20208;-75
2021/08/14 02:16:48;;;;;;;9.93;8.77;;;21.90;99.90;;;;;;4974500;28;20240;-78
2021/08/14 02:19:14;;;;;;;10.50;8.33;;;21.90;99.90;;;;;;4974367;28;20212;-77
2021/08/14 02:21:39;;;;;;;10.13;9.13;;;21.90;99.90;;;;;;4974336;28;20232;-75
2021/08/14 02:24:05;;;;;;;9.13;8.33;;;21.90;99.90;;;;;;4973366;28;20231;-77
2021/08/14 02:26:31;;;;;;;10.30;9.03;;;21.90;99.90;;;;;;4971824;28;20287;-77
2021/08/14 02:28:59;;;;;;;9.03;8.23;;;21.90;99.90;;;;;;4972880;28;20193;-77
2021/08/14 02:31:25;;;;;;;9.40;8.50;;;21.80;99.90;;;;;;4974141;28;20263;-77
2021/08/14 02:33:53;;;;;;;8.90;8.03;;;21.90;99.90;;;;;;4972819;28;20307;-76
2021/08/14 02:36:19;;;;;;;9.13;8.33;;;21.90;99.90;;;;;;4974055;28;20716;-76
2021/08/14 02:38:45;;;;;;;9.43;8.53;;;21.90;99.90;;;;;;4974114;28;20259;-77
2021/08/14 02:41:10;;;;;;;8.80;8.10;;;21.80;99.90;;;;;;4974018;28;20671;-78
2021/08/14 02:43:36;;;;;;;9.13;8.33;;;21.80;99.90;;;;;;4972431;28;20212;-77
2021/08/14 02:46:03;;;;;;;10.73;9.37;;;21.80;99.90;;;;;;4973964;28;20191;-77
2021/08/14 02:48:30;;;;;;;9.10;8.30;;;21.70;99.90;;;;;;4973871;28;20259;-75
2021/08/14 02:50:56;;;;;;;9.33;8.43;;;21.70;99.90;;;;;;4972539;28;20180;-75
2021/08/14 02:53:22;;;;;;;8.70;8.00;;;21.70;99.90;;;;;;4972488;28;20228;-75
2021/08/14 02:55:48;;;;;;;9.27;8.40;;;21.70;99.90;;;;;;4972433;28;20614;-75
2021/08/14 02:58:13;;;;;;;9.53;8.63;;;21.60;99.90;;;;;;4973719;28;20195;-75
2021/08/14 03:00:39;;;;;;;9.70;8.77;;;21.60;99.90;;;;;;4973561;28;20219;-75
2021/08/14 03:03:05;;;;;;;9.50;8.20;;;21.50;99.90;;;;;;4973619;28;20564;-75
2021/08/14 03:05:30;;;;;;;9.77;8.77;;;21.60;99.90;;;;;;4972329;28;20243;-75
2021/08/14 03:07:56;;;;;;;9.03;8.20;;;21.50;99.90;;;;;;4973617;28;20191;-75
2021/08/14 03:10:22;;;;;;;8.90;8.03;;;21.40;99.90;;;;;;4973662;28;20180;-75
2021/08/14 03:12:48;;;;;;;9.17;8.30;;;21.40;99.90;;;;;;4973465;28;20176;-73
2021/08/14 03:15:14;;;;;;;9.30;8.50;;;21.40;99.90;;;;;;4973545;28;20704;-74
2021/08/14 03:17:40;;;;;;;8.90;8.17;;;21.40;99.90;;;;;;4972107;28;20180;-74
2021/08/14 03:20:07;;;;;;;9.23;8.43;;;21.40;99.90;;;;;;4973393;28;20250;-74
2021/08/14 03:22:33;;;;;;;9.67;8.77;;;21.40;99.90;;;;;;4973329;28;20211;-75
2021/08/14 03:24:58;;;;;;;9.80;8.67;;;21.40;99.90;;;;;;4975011;28;20232;-75
2021/08/14 03:27:24;;;;;;;8.93;8.10;;;21.40;99.90;;;;;;4979936;28;20180;-75
2021/08/14 03:29:50;;;;;;;9.37;8.47;;;21.30;99.90;;;;;;4979850;28;20183;-75
2021/08/14 03:32:16;;;;;;;9.77;8.97;;;21.40;99.90;;;;;;4979778;28;20184;-74
2021/08/14 03:34:42;;;;;;;10.13;9.07;;;21.40;99.90;;;;;;4978478;28;20235;-75
2021/08/14 03:37:07;;;;;;;10.97;8.70;;;21.40;99.90;;;;;;4978477;28;20635;-75
2021/08/14 03:39:36;;;;;;;8.90;8.10;;;21.40;99.90;;;;;;4979808;28;20191;-75
2021/08/14 03:42:02;;;;;;;8.87;8.07;;;21.40;99.90;;;;;;4979500;28;20267;-76
2021/08/14 03:44:28;;;;;;;10.70;8.97;;;21.40;99.90;;;;;;4979636;28;20207;-74
2021/08/14 03:46:53;;;;;;;8.87;7.97;;;21.40;99.90;;;;;;4979156;28;20656;-75
2021/08/14 03:49:19;;;;;;;9.87;8.93;;;21.40;99.90;;;;;;4978075;28;20180;-75
2021/08/14 03:51:45;;;;;;;8.77;7.97;;;21.30;99.90;;;;;;4978553;28;20204;-74
2021/08/14 03:54:11;;;;;;;8.63;7.87;;;21.30;99.90;;;;;;4976470;28;20742;-74
2021/08/14 03:56:36;;;;;;;10.20;7.97;;;21.30;99.90;;;;;;4978197;28;20191;-75
2021/08/14 03:59:02;;;;;;;8.83;7.93;;;21.30;99.90;;;;;;4977715;28;20180;-75
2021/08/14 04:01:28;;;;;;;9.00;8.10;;;21.30;99.90;;;;;;4974577;28;20216;-75
2021/08/14 04:03:54;;;;;;;9.07;8.27;;;21.30;99.90;;;;;;4977331;28;20234;-75
2021/08/14 04:06:19;;;;;;;9.77;8.67;;;21.30;99.90;;;;;;4983677;28;20536;-75
2021/08/14 04:08:45;;;;;;;9.67;8.63;;;21.30;99.90;;;;;;4983519;28;20554;-74
2021/08/14 04:11:10;;;;;;;9.57;8.20;;;21.30;99.90;;;;;;4977666;28;20227;-75
2021/08/14 04:13:36;;;;;;;8.80;8.10;;;21.20;99.90;;;;;;4977201;28;20467;-76
2021/08/14 04:16:02;;;;;;;8.47;7.63;;;21.20;99.90;;;;;;4975533;28;20280;-75
2021/08/14 04:18:28;;;;;;;9.47;8.63;;;21.10;99.90;;;;;;4976341;28;20184;-75
2021/08/14 04:20:54;;;;;;;9.43;8.57;;;21.10;99.90;;;;;;4976878;28;20184;-75
2021/08/14 04:23:20;;;;;;;8.80;8.00;;;21.10;99.90;;;;;;4975585;28;20214;-75
2021/08/14 04:25:46;;;;;;;9.03;8.20;;;21.10;99.90;;;;;;4976758;28;20204;-78
2021/08/14 04:28:12;;;;;;;8.97;8.17;;;21.10;99.90;;;;;;4975521;28;20348;-76
2021/08/14 04:30:37;;;;;;;10.20;8.00;;;21.10;99.90;;;;;;4975403;28;20200;-77
2021/08/14 04:33:03;;;;;;;12.83;8.97;;;21.10;99.90;;;;;;4976791;28;20219;-75
2021/08/14 04:35:29;;;;;;;11.40;8.10;;;21.10;99.90;;;;;;4975513;28;20172;-74
2021/08/14 04:37:55;;;;;;;8.67;7.77;;;21.10;99.90;;;;;;4971910;28;20188;-74
2021/08/14 04:40:21;;;;;;;8.90;8.00;;;21.00;99.90;;;;;;4973907;28;20184;-76
2021/08/14 04:42:47;;;;;;;11.30;8.30;;;21.00;99.90;;;;;;4974356;28;20196;-75
2021/08/14 04:45:13;;;;;;;8.57;7.77;;;21.00;99.90;;;;;;4974059;28;20172;-76
2021/08/14 04:47:39;;;;;;;9.17;8.27;;;21.00;99.90;;;;;;4974939;28;20180;-75
2021/08/14 04:50:06;;;;;;;8.87;8.10;;;21.00;99.90;;;;;;4973692;28;20192;-75
2021/08/14 04:52:32;;;;;;;10.13;9.20;;;21.00;99.90;;;;;;4973455;28;20195;-76
2021/08/14 04:54:58;;;;;;;12.80;8.87;;;21.00;99.90;;;;;;4973431;28;20204;-76
2021/08/14 04:57:24;;;;;;;9.57;8.77;;;20.90;99.90;;;;;;4975748;28;20181;-75
2021/08/14 04:59:50;;;;;;;9.27;8.40;;;20.90;99.90;;;;;;4976018;28;20184;-75
2021/08/14 05:02:16;;;;;;;9.90;8.87;;;20.90;99.90;;;;;;4975840;28;20187;-75
2021/08/14 05:04:42;;;;;;;8.87;8.03;;;20.90;99.90;;;;;;4975646;28;20212;-77
2021/08/14 05:07:08;;;;;;;9.17;8.30;;;20.90;99.90;;;;;;4975766;28;20535;-77
2021/08/14 05:09:38;;;;;;;9.23;8.33;;;20.90;99.90;;;;;;4974388;28;20184;-75
2021/08/14 05:12:04;;;;;;;9.57;8.10;;;20.90;99.90;;;;;;4975742;28;20200;-75
2021/08/14 05:14:30;;;;;;;8.73;7.97;;;20.80;99.90;;;;;;4975624;28;20610;-75
2021/08/14 05:16:56;;;;;;;9.33;8.40;;;20.90;99.90;;;;;;4974398;28;20225;-77
2021/08/14 05:19:21;;;;;;;11.00;8.27;;;20.90;99.90;;;;;;4975339;28;20188;-77
2021/08/14 05:21:48;;;;;;;9.97;9.10;;;20.90;99.90;;;;;;4975569;28;20192;-76
2021/08/14 05:24:14;;;;;;;10.23;9.10;;;20.90;99.90;;;;;;4975749;28;20571;-77
2021/08/14 05:26:42;;;;;;;9.70;8.47;;;20.90;99.90;;;;;;4975326;28;20188;-77
2021/08/14 05:29:08;;;;;;;10.13;7.97;;;20.80;99.90;;;;;;4975669;28;20196;-77
2021/08/14 05:31:33;;;;;;;10.63;8.20;;;20.80;99.90;;;;;;4975089;28;20324;-77
2021/08/14 05:34:02;;;;;;;9.47;8.57;;;20.80;99.90;;;;;;4974141;28;20204;-76
2021/08/14 05:36:29;;;;;;;13.93;8.30;;;20.90;99.90;;;;;;4975209;28;20240;-77
2021/08/14 05:38:58;;;;;;;12.67;8.20;;;21.00;99.90;;;;;;4975136;28;20655;-77
2021/08/14 05:41:24;;;;;;;13.20;8.33;;;21.00;99.90;;;;;;4973521;28;20176;-77
2021/08/14 05:43:50;;;;;;;12.30;9.20;;;21.00;99.90;;;;;;4974031;28;20196;-75
2021/08/14 05:46:19;;;;;;;9.27;8.33;;;21.00;99.90;;;;;;4973633;28;20184;-78
2021/08/14 05:48:44;;;;;;;8.57;7.77;;;21.00;99.90;;;;;;4972882;28;20227;-75
2021/08/14 05:51:11;;;;;;;9.33;8.20;;;21.10;99.90;;;;;;4974684;28;20290;-77
2021/08/14 05:53:37;;;;;;;9.23;8.33;;;21.10;99.90;;;;;;4974791;28;20205;-77
2021/08/14 05:56:03;;;;;;;9.50;8.60;;;21.20;99.90;;;;;;4971579;28;20532;-77
2021/08/14 05:58:29;;;;;;;9.80;8.90;;;21.20;99.90;;;;;;4974101;28;20563;-78
2021/08/14 06:00:54;;;;;;;9.77;8.80;;;21.20;99.90;;;;;;4973550;28;20180;-77
2021/08/14 06:03:20;;;;;;;13.77;9.33;;;21.20;99.90;;;;;;4973103;28;20192;-76
2021/08/14 06:05:46;;;;;;;9.10;8.33;;;21.20;99.90;;;;;;4972892;28;20176;-77
2021/08/14 06:08:11;;;;;;;9.33;8.10;;;21.30;99.90;;;;;;4973988;28;20176;-79
2021/08/14 06:10:37;;;;;;;14.53;8.57;;;21.40;99.90;;;;;;4971512;28;20279;-77
2021/08/14 06:13:03;;;;;;;8.93;8.23;;;21.50;99.90;;;;;;4973906;28;20196;-77
2021/08/14 06:15:29;;;;;;;13.47;8.97;;;21.60;99.90;;;;;;4972035;28;20181;-77
2021/08/14 06:17:58;;;;;;;8.60;7.73;;;21.70;99.90;;;;;;4970557;28;20184;-77
2021/08/14 06:20:27;;;;;;;9.40;7.80;;;21.80;99.90;;;;;;4971091;28;20177;-75
2021/08/14 06:22:53;;;;;;;8.03;7.23;;;21.90;99.90;;;;;;4972569;28;20648;-75
2021/08/14 06:25:19;;;;;;;10.53;7.57;;;21.90;99.90;;;;;;4972897;28;20195;-77
2021/08/14 06:27:45;;;;;;;8.47;7.77;;;21.90;99.90;;;;;;4974095;28;20181;-77
2021/08/14 06:30:11;;;;;;;8.33;7.63;;;22.00;99.90;;;;;;4972352;28;20181;-78
2021/08/14 06:32:37;;;;;;;7.83;7.13;;;22.00;99.90;;;;;;4972086;28;20187;-77
2021/08/14 06:35:03;;;;;;;10.87;7.80;;;22.00;99.90;;;;;;4971552;28;20564;-77
2021/08/14 06:37:29;;;;;;;9.50;8.30;;;22.20;99.90;;;;;;4974076;28;20176;-77
2021/08/14 06:39:54;;;;;;;8.43;7.37;;;22.20;99.90;;;;;;4972526;28;20603;-77
2021/08/14 06:42:20;;;;;;;8.37;7.57;;;22.20;99.90;;;;;;4974249;28;20184;-75
2021/08/14 06:44:45;;;;;;;9.93;7.40;;;22.30;99.90;;;;;;4973891;28;20200;-77
2021/08/14 06:47:11;;;;;;;9.73;7.40;;;22.20;99.90;;;;;;4973827;28;20557;-74
2021/08/14 06:49:37;;;;;;;8.30;7.47;;;22.30;99.90;;;;;;4972631;28;20196;-77
2021/08/14 06:52:06;;;;;;;8.43;7.70;;;22.40;99.90;;;;;;4973724;28;20199;-77
2021/08/14 06:54:31;;;;;;;8.63;7.63;;;22.30;99.90;;;;;;4973644;28;20200;-75
2021/08/14 06:56:57;;;;;;;8.23;7.30;;;22.50;99.90;;;;;;4972583;28;20202;-76
2021/08/14 06:59:23;;;;;;;8.03;7.43;;;22.50;99.90;;;;;;4971623;28;20184;-75
2021/08/14 07:01:48;;;;;;;9.33;7.40;;;22.60;99.90;;;;;;4964227;28;20271;-76
2021/08/14 07:04:14;;;;;;;7.77;7.13;;;22.60;99.90;;;;;;4973611;28;20741;-77
2021/08/14 07:06:40;;;;;;;8.27;7.67;;;22.70;99.90;;;;;;4972419;28;20561;-75
2021/08/14 07:09:05;;;;;;;8.50;7.67;;;22.80;99.90;;;;;;4973570;28;20176;-77
2021/08/14 07:11:31;;;;;;;7.53;6.93;;;22.90;99.90;;;;;;4972059;28;20200;-77
2021/08/14 07:13:57;;;;;;;9.07;8.00;;;22.90;99.90;;;;;;4968715;28;20655;-75
2021/08/14 07:16:22;;;;;;;8.50;7.10;;;23.00;99.90;;;;;;4972916;28;20232;-76
2021/08/14 07:18:48;;;;;;;8.23;7.43;;;23.00;99.90;;;;;;4972204;28;20594;-77
2021/08/14 07:21:14;;;;;;;8.03;7.23;;;23.60;99.90;;;;;;4973371;28;20722;-76
2021/08/14 07:23:40;;;;;;;7.77;7.07;;;23.10;99.90;;;;;;4972067;28;20201;-76
2021/08/14 07:26:05;;;;;;;7.90;7.10;;;23.20;99.90;;;;;;4971962;28;20675;-75
2021/08/14 07:28:32;;;;;;;7.60;7.00;;;23.30;99.90;;;;;;4972146;28;20643;-76
2021/08/14 07:30:57;;;;;;;7.80;7.00;;;23.30;99.90;;;;;;4973569;28;20313;-76
2021/08/14 07:33:23;;;;;;;8.30;7.50;;;23.30;99.90;;;;;;4971821;28;20265;-77
2021/08/14 07:35:49;;;;;;;8.03;7.33;;;23.30;99.90;;;;;;4973399;28;20211;-76
2021/08/14 07:38:15;;;;;;;7.83;7.23;;;23.40;99.90;;;;;;4973293;28;20211;-76
2021/08/14 07:40:41;;;;;;;7.27;6.63;;;23.50;99.90;;;;;;4973249;28;20227;-77
2021/08/14 07:43:09;;;;;;;8.70;7.53;;;23.60;99.90;;;;;;4973237;28;20582;-77
2021/08/14 07:45:36;;;;;;;7.50;6.57;;;23.70;99.90;;;;;;4971879;28;20176;-76
2021/08/14 07:48:06;;;;;;;8.00;7.27;;;23.80;99.90;;;;;;4971582;28;20211;-78
2021/08/14 07:50:33;;;;;;;7.90;7.10;;;23.70;99.90;;;;;;4973036;28;20204;-77
2021/08/14 07:52:59;;;;;;;9.17;7.87;;;23.90;99.90;;;;;;4971966;28;20181;-76
2021/08/14 07:55:27;;;;;;;9.00;7.30;;;24.00;99.90;;;;;;4973013;28;20652;-77
2021/08/14 07:57:53;;;;;;;7.77;6.80;;;24.10;99.90;;;;;;4972860;28;20188;-78
2021/08/14 08:00:24;;;;;;;7.20;6.17;;;24.10;99.90;;;;;;4973420;28;20259;-77
2021/08/14 08:02:50;;;;;;;7.77;7.03;;;24.20;99.90;;;;;;4971744;28;20184;-77
2021/08/14 08:05:16;;;;;;;7.87;6.60;;;24.30;99.90;;;;;;4971872;28;20597;-77
2021/08/14 08:07:45;;;;;;;7.47;6.77;;;24.40;99.90;;;;;;4972953;28;20548;-77
2021/08/14 08:10:19;;;;;;;7.83;7.10;;;24.40;99.90;;;;;;4972960;28;20176;-77
2021/08/14 08:12:45;;;;;;;7.60;6.90;;;24.50;99.90;;;;;;4974792;28;20652;-77
2021/08/14 08:15:12;;;;;;;8.17;7.37;;;24.50;99.90;;;;;;4975383;28;20553;-77
2021/08/14 08:17:39;;;;;;;8.63;6.83;;;24.60;99.90;;;;;;4959130;28;20184;-77
2021/08/14 08:20:06;;;;;;;7.23;6.07;;;24.70;99.90;;;;;;4975239;28;20173;-77
2021/08/14 08:22:32;;;;;;;10.97;6.73;;;24.80;99.90;;;;;;4976505;28;20666;-77
2021/08/14 08:24:58;;;;;;;10.17;7.50;;;24.80;99.90;;;;;;4974082;28;20299;-76
2021/08/14 08:27:24;;;;;;;9.03;7.00;;;25.00;99.90;;;;;;4975027;28;20548;-77
2021/08/14 08:29:50;;;;;;;9.23;6.40;;;25.00;99.90;;;;;;4976177;28;20181;-77
2021/08/14 08:32:15;;;;;;;10.50;6.70;;;25.10;99.90;;;;;;4974814;28;20201;-77
2021/08/14 08:34:41;;;;;;;9.37;6.33;;;25.30;99.90;;;;;;4974208;28;20207;-77
2021/08/14 08:37:07;;;;;;;12.00;7.00;;;25.30;99.90;;;;;;4976250;28;20181;-76
2021/08/14 08:39:34;;;;;;;10.23;6.40;;;25.40;99.90;;;;;;4974875;28;20203;-77
2021/08/14 08:42:00;;;;;;;10.70;6.50;;;25.40;99.90;;;;;;4974814;28;20180;-74
2021/08/14 08:44:26;;;;;;;11.30;6.30;;;25.50;99.90;;;;;;4976023;28;20200;-76
2021/08/14 08:46:52;;;;;;;11.70;6.70;;;25.50;99.90;;;;;;4973316;28;20181;-76
2021/08/14 08:49:19;;;;;;;11.73;6.97;;;25.60;99.90;;;;;;4976010;28;20663;-76
2021/08/14 08:51:47;;;;;;;8.30;6.40;;;25.60;99.90;;;;;;4974632;28;20622;-76
2021/08/14 08:54:14;;;;;;;9.80;6.70;;;25.70;99.90;;;;;;4974511;28;20200;-77
2021/08/14 08:56:41;;;;;;;8.80;6.87;;;25.60;99.90;;;;;;4975049;28;20895;-77
2021/08/14 08:59:11;;;;;;;7.90;7.10;;;25.70;99.90;;;;;;4973268;28;20728;-77
2021/08/14 09:01:40;;;;;;;8.33;6.67;;;25.90;99.90;;;;;;4974749;28;20188;-75
2021/08/14 09:04:21;;;;;;;6.87;6.00;;;25.80;99.90;;;;;;4974133;28;20303;-76
2021/08/14 09:06:47;;;;;;;7.47;6.53;;;25.90;99.90;;;;;;4974506;28;20208;-75
2021/08/14 09:09:16;;;;;;;7.77;7.07;;;26.00;99.90;;;;;;4974412;28;20208;-77
2021/08/14 09:11:53;;;;;;;6.73;6.13;;;26.00;99.90;;;;;;4974345;28;20200;-77
2021/08/14 09:14:19;;;;;;;7.00;5.90;;;26.20;99.90;;;;;;4973019;28;20196;-77
2021/08/14 09:16:45;;;;;;;8.17;6.17;;;26.30;99.90;;;;;;4972808;28;20247;-77
2021/08/14 09:19:23;;;;;;;11.20;6.73;;;26.40;99.90;;;;;;4972130;28;20674;-77
2021/08/14 09:21:49;;;;;;;6.87;6.30;;;26.40;99.90;;;;;;4969314;28;20184;-77
2021/08/14 09:24:33;;;;;;;7.40;6.43;;;26.40;99.90;;;;;;4973383;28;20210;-77
2021/08/14 09:27:01;;;;;;;8.43;6.60;;;26.40;99.90;;;;;;4975384;28;20597;-75
2021/08/14 09:29:36;;;;;;;8.13;6.37;;;26.50;99.90;;;;;;4974229;28;20597;-77
2021/08/14 09:32:05;;;;;;;7.20;6.50;;;26.60;99.90;;;;;;4972454;28;20200;-78
2021/08/14 09:34:31;;;;;;;8.60;6.20;;;26.70;99.90;;;;;;4973608;28;20730;-78
2021/08/14 09:36:59;;;;;;;12.40;6.73;;;26.80;99.90;;;;;;4973822;28;20516;-77
2021/08/14 09:39:25;;;;;;;7.60;6.33;;;26.80;99.90;;;;;;4973937;28;20652;-76
2021/08/14 09:42:08;;;;;;;7.00;6.40;;;26.90;99.90;;;;;;4972910;28;20208;-75
2021/08/14 09:44:36;;;;;;;7.83;6.13;;;27.00;99.90;;;;;;4974767;28;20216;-76
2021/08/14 09:47:08;;;;;;;7.47;6.70;;;27.10;99.90;;;;;;4969951;28;20276;-76
2021/08/14 09:49:57;;;;;;;9.83;6.90;;;27.30;99.90;;;;;;4971151;28;20188;-77
2021/08/14 09:52:25;;;;;;;7.00;6.30;;;27.30;99.90;;;;;;4971582;28;20256;-77
2021/08/14 09:54:54;;;;;;;6.93;6.33;;;27.40;99.90;;;;;;4973147;28;20678;-76
2021/08/14 09:57:20;;;;;;;6.67;6.17;;;27.50;99.90;;;;;;4972717;28;20259;-76
2021/08/14 09:59:48;;;;;;;7.17;6.23;;;27.60;99.90;;;;;;4973304;28;20176;-75
2021/08/14 10:02:35;;;;;;;11.60;6.43;;;27.60;99.90;;;;;;4973310;28;20188;-76
2021/08/14 10:05:01;;;;;;;7.97;6.80;;;27.70;99.90;;;;;;4973240;28;20295;-75
2021/08/14 10:07:27;;;;;;;9.67;7.27;;;27.80;99.90;;;;;;4973593;28;20700;-75
2021/08/14 10:09:53;;;;;;;7.30;6.60;;;27.90;99.90;;;;;;4972171;28;20612;-75
2021/08/14 10:12:24;;;;;;;10.60;6.37;;;27.90;99.90;;;;;;4974701;28;20296;-82
2021/08/14 10:14:52;;;;;;;9.57;6.73;;;27.90;99.90;;;;;;4988015;28;20224;-82
2021/08/14 10:17:23;;;;;;;8.93;6.60;;;27.80;99.90;;;;;;4987057;28;20216;-82
2021/08/14 10:19:53;;;;;;;11.23;6.20;;;27.90;99.90;;;;;;4988365;28;20176;-82
2021/08/14 10:22:24;;;;;;;8.20;6.40;;;28.00;99.90;;;;;;4985263;28;20247;-82
2021/08/14 10:24:50;;;;;;;10.93;5.80;;;28.10;99.90;;;;;;4986767;28;20220;-83
2021/08/14 10:27:19;;;;;;;9.93;6.17;;;28.20;99.90;;;;;;4987254;28;20253;-83
2021/08/14 10:29:47;;;;;;;6.70;5.77;;;28.20;99.90;;;;;;4987073;28;20283;-83
2021/08/14 10:32:32;;;;;;;7.83;6.10;;;28.10;99.90;;;;;;4986331;28;20207;-83
2021/08/14 10:35:20;;;;;;;11.87;6.07;;;28.30;99.90;;;;;;4984685;28;20286;-83
2021/08/14 10:37:49;;;;;;;9.67;6.13;;;28.30;99.90;;;;;;4985470;28;20601;-83
2021/08/14 10:40:16;;;;;;;8.07;6.17;;;28.40;99.90;;;;;;4984983;28;20248;-83
2021/08/14 10:42:53;;;;;;;8.30;5.77;;;28.50;99.90;;;;;;4987019;28;20190;-83
2021/08/14 10:45:22;;;;;;;7.07;5.77;;;28.50;99.90;;;;;;4986345;28;20278;-83
2021/08/14 10:47:50;;;;;;;7.40;6.07;;;28.50;99.90;;;;;;4986685;28;20263;-83
2021/08/14 10:50:31;;;;;;;7.63;5.83;;;28.50;99.90;;;;;;4985925;28;20211;-84
2021/08/14 10:53:24;;;;;;;8.13;5.70;;;28.60;99.90;;;;;;4986611;28;20567;-83
2021/08/14 10:55:53;;;;;;;6.40;5.80;;;28.70;99.90;;;;;;4985962;28;20185;-82
2021/08/14 10:58:27;;;;;;;6.40;5.60;;;28.80;99.90;;;;;;4986084;28;20176;-83
2021/08/14 11:01:22;;;;;;;10.63;6.23;;;28.80;99.90;;;;;;4986226;28;20545;-82
2021/08/14 11:03:48;;;;;;;8.87;6.03;;;28.70;99.90;;;;;;4982622;28;20268;-83
2021/08/14 11:06:32;;;;;;;6.73;6.00;;;28.60;99.90;;;;;;4987064;28;20180;-83
2021/08/14 11:09:16;;;;;;;9.60;5.50;;;28.60;99.90;;;;;;4986174;28;20643;-84
2021/08/14 11:11:55;;;;;;;7.77;6.33;;;28.70;99.90;;;;;;4987226;28;20184;-83
2021/08/14 11:14:43;;;;;;;9.27;6.00;;;28.90;99.90;;;;;;4987530;28;20243;-83
2021/08/14 11:17:11;;;;;;;8.87;6.40;;;29.00;99.90;;;;;;4986893;28;20180;-82
2021/08/14 11:19:46;;;;;;;8.80;5.77;;;29.10;99.90;;;;;;4984961;28;20200;-83
2021/08/14 11:22:24;;;;;;;9.87;6.10;;;29.40;99.90;;;;;;4986574;28;20223;-83
2021/08/14 11:24:50;;;;;;;10.33;5.90;;;;;;;;;;4986175;28;20204;-83
2021/08/14 11:27:35;;;;;;;9.23;5.60;;;29.30;99.90;;;;;;4987978;28;20630;-83
2021/08/14 11:30:07;;;;;;;7.83;5.67;;;29.30;99.90;;;;;;4989057;28;20180;-82
2021/08/14 11:32:33;;;;;;;8.43;6.00;;;29.40;99.90;;;;;;4988181;28;20184;-84
2021/08/14 11:35:00;;;;;;;9.43;6.07;;;29.30;99.90;;;;;;4989843;28;20200;-83
2021/08/14 11:37:26;;;;;;;10.37;5.80;;;29.40;99.90;;;;;;4990197;28;20176;-82
2021/08/14 11:40:04;;;;;;;8.73;5.47;;;29.70;99.90;;;;;;4990114;28;20184;-83
2021/08/14 11:42:32;;;;;;;12.47;6.13;;;30.00;99.90;;;;;;4990295;28;20222;-83
2021/08/14 11:45:00;;;;;;;13.07;5.80;;;30.10;99.90;;;;;;4990022;28;20200;-83
2021/08/14 11:47:37;;;;;;;5.80;5.23;;;30.00;99.90;;;;;;4994159;28;20188;-84
2021/08/14 11:50:05;;;;;;;8.60;5.90;;;30.00;99.90;;;;;;4994420;28;20547;-83
2021/08/14 11:52:31;;;;;;;9.17;5.30;;;30.20;99.90;;;;;;4994057;28;20168;-84
2021/08/14 11:55:02;;;;;;;10.17;5.50;;;30.40;99.90;;;;;;4989744;28;20208;-84
2021/08/14 11:57:39;;;;;;;6.03;5.43;;;30.60;99.90;;;;;;4988324;28;20204;-83
2021/08/14 12:00:26;;;;;;;7.57;5.83;;;30.80;99.90;;;;;;4987768;28;20180;-81
2021/08/14 12:03:12;;;;;;;7.47;5.17;;;30.90;99.90;;;;;;4987936;28;20191;-83
2021/08/14 12:05:46;;;;;;;7.23;5.30;;;30.60;99.90;;;;;;4986352;28;20262;-83
2021/08/14 12:08:37;;;;;;;8.27;5.10;;;30.50;99.90;;;;;;4988321;28;20179;-82
2021/08/14 12:11:09;;;;;;;8.97;5.93;;;30.70;99.90;;;;;;4978696;28;20267;-83
2021/08/14 12:13:36;;;;;;;8.00;5.40;;;30.90;99.90;;;;;;4984589;28;20197;-83
2021/08/14 12:16:37;;;;;;;11.50;5.60;;;31.00;99.90;;;;;;4989700;28;20266;-83
2021/08/14 12:19:18;;;;;;;6.83;5.37;;;31.20;99.90;;;;;;4982334;28;20215;-83
2021/08/14 12:21:45;;;;;;;6.10;5.47;;;31.10;99.90;;;;;;4988439;28;20246;-83
2021/08/14 12:24:15;;;;;;;9.50;5.60;;;31.20;99.90;;;;;;4985366;28;20200;-84
2021/08/14 12:26:41;;;;;;;9.57;6.40;;;30.90;99.90;;;;;;4985261;28;20185;-84
2021/08/14 12:29:15;;;;;;;6.93;5.20;;;30.70;99.90;;;;;;4989979;28;20232;-83
2021/08/14 12:31:52;;;;;;;8.03;6.20;;;30.80;99.90;;;;;;4987637;28;20179;-83
2021/08/14 12:34:33;;;;;;;8.07;6.53;;;30.60;99.90;;;;;;4985912;28;20204;-84
2021/08/14 12:37:06;;;;;;;10.90;6.17;;;30.50;99.90;;;;;;4986612;28;20195;-83
2021/08/14 12:39:56;;;;;;;8.00;5.97;;;30.50;99.90;;;;;;4988293;28;20211;-82
2021/08/14 12:42:29;;;;;;;10.83;6.00;;;30.80;99.90;;;;;;4989361;28;20230;-84
2021/08/14 12:44:57;;;;;;;9.17;5.43;;;31.00;99.90;;;;;;4987087;28;20207;-84
2021/08/14 12:47:31;;;;;;;9.40;5.80;;;31.20;99.90;;;;;;4988034;28;20177;-84
2021/08/14 12:50:15;;;;;;;7.03;5.70;;;31.10;99.90;;;;;;4985854;28;20264;-85
2021/08/14 12:53:04;;;;;;;7.20;6.50;;;31.00;99.90;;;;;;4987386;28;20177;-84